Time;durP1;ratioP1;P1;durP2;ratioP2;P2;SDS_P1;SDS_P2;PMS_P1;PMS_P2;Temp;Humidity;BMP_temperature;BMP_pressure;BME280_temperature;BME280_humidity;BME280_pressure;Samples;Min_cycle;Max_cycle;Signal;HPM_P1;HPM_P2
2023/01/25 07:05:48;;;;;;;;;;;;;;;3.20;60.50;98008.34;4273316;27;10282;-71
2023/01/25 07:07:51;;;;;;;;;;;;;;;3.52;60.10;98017.28;4255852;27;5931;-70
2023/01/25 07:09:53;;;;;;;;;;;;;;;3.75;59.70;98018.94;4255342;27;5739;-70
2023/01/25 07:11:56;;;;;;;;;;;;;;;3.92;59.56;98015.78;4258994;27;5645;-70
2023/01/25 07:13:59;;;;;;;;;;;;;;;4.04;59.33;98009.59;4255232;27;5788;-70
2023/01/25 07:16:04;;;;;;;;;;;;;;;4.19;58.95;98014.53;4261114;27;5627;-70
2023/01/25 07:18:06;;;;;;;;;;;;;;;4.28;59.05;98003.31;4259437;27;5767;-67
2023/01/25 07:20:18;;;;;;;;;;;;;;;4.35;58.82;98007.94;4255033;27;5644;-62
2023/01/25 07:22:22;;;;;;;;;;;;;;;4.41;58.67;98006.59;4257009;27;5788;-63
2023/01/25 07:24:25;;;;;;;;;;;;;;;4.45;58.50;97999.34;4251683;27;5754;-62
2023/01/25 07:26:29;;;;;;;;;;;;;;;4.47;58.63;97994.81;4258109;27;5636;-64
2023/01/25 07:28:33;;;;;;;;;;;;;;;4.49;58.40;97998.97;4257406;27;5877;-64
2023/01/25 07:30:37;;;;;;;;;;;;;;;4.52;58.40;97992.63;4261761;27;5653;-64
2023/01/25 07:32:40;;;;;;;;;;;;;;;4.54;58.40;97996.00;4256643;27;5641;-66
2023/01/25 07:34:44;;;;;;;;;;;;;;;4.55;58.28;98006.34;4254149;27;5814;-66
2023/01/25 07:36:46;;;;;;;;;;;;;;;4.58;58.18;98008.69;4262919;27;5616;-66
2023/01/25 07:38:53;;;;;;;;;;;;;;;4.61;58.15;98008.44;4256827;27;5715;-65
2023/01/25 07:40:56;;;;;;;;;;;;;;;4.64;58.09;98002.09;4258055;27;5640;-66
2023/01/25 07:42:58;;;;;;;;;;;;;;;4.66;57.97;98006.28;4256515;27;5744;-66
2023/01/25 07:45:01;;;;;;;;;;;;;;;4.68;57.97;98004.34;4262330;27;5798;-66
2023/01/25 07:47:04;;;;;;;;;;;;;;;4.71;57.85;98002.44;4256920;27;5632;-66
2023/01/25 07:49:07;;;;;;;;;;;;;;;4.73;57.72;97996.09;4258883;27;6366;-68
2023/01/25 07:51:21;;;;;;;;;;;;;;;4.75;57.77;98001.22;4259718;27;5628;-66
2023/01/25 07:53:24;;;;;;;;;;;;;;;4.77;57.77;97996.69;4257291;27;5747;-66
2023/01/25 07:55:28;;;;;;;;;;;;;;;4.79;57.56;98005.25;4251393;27;5632;-65
2023/01/25 07:57:31;;;;;;;;;;;;;;;4.82;57.52;98010.25;4260232;27;5743;-66
2023/01/25 07:59:34;;;;;;;;;;;;;;;4.84;57.46;98011.75;4258249;27;5771;-66
2023/01/25 08:01:37;;;;;;;;;;;;;;;4.87;57.47;98008.06;4264069;27;5847;-66
2023/01/25 08:03:40;;;;;;;;;;;;;;;4.91;57.41;98004.25;4264994;27;5644;-66
2023/01/25 08:05:44;;;;;;;;;;;;;;;4.94;57.34;97998.72;4252645;27;5712;-66
2023/01/25 08:07:47;;;;;;;;;;;;;;;4.95;57.41;98000.41;4244379;27;5827;-64
2023/01/25 08:09:50;;;;;;;;;;;;;;;4.95;57.20;97995.16;4252913;27;5729;-66
2023/01/25 08:11:54;;;;;;;;;;;;;;;4.99;57.08;97993.13;4251755;27;5862;-66
2023/01/25 08:13:57;;;;;;;;;;;;;;;5.02;57.11;97987.63;4248441;27;6313;-63
2023/01/25 08:16:00;;;;;;;;;;;;;;;5.06;57.03;97984.59;4248937;27;5731;-64
2023/01/25 08:18:05;;;;;;;;;;;;;;;5.09;56.93;97988.75;4253864;27;5631;-64
2023/01/25 08:20:09;;;;;;;;;;;;;;;5.11;56.88;97995.53;4253293;27;5635;-65
2023/01/25 08:22:13;;;;;;;;;;;;;;;5.13;57.02;97988.38;4253503;27;5786;-65
2023/01/25 08:24:15;;;;;;;;;;;;;;;5.18;56.99;97999.28;4242250;27;5744;-64
2023/01/25 08:26:19;;;;;;;;;;;;;;;5.21;56.84;97993.81;4238221;27;5645;-64
2023/01/25 08:28:24;;;;;;;;;;;;;;;5.28;56.73;98001.97;4236273;27;5684;-65
2023/01/25 08:30:27;;;;;;;;;;;;;;;5.32;56.70;98002.53;4250922;27;5690;-65
2023/01/25 08:32:29;;;;;;;;;;;;;;;5.38;56.63;97981.03;4247803;27;5736;-65
2023/01/25 08:34:32;;;;;;;;;;;;;;;5.39;56.62;97978.28;4237344;27;6346;-65
2023/01/25 08:36:35;;;;;;;;;;;;;;;5.44;56.50;97988.38;4252692;27;5620;-66
2023/01/25 08:38:39;;;;;;;;;;;;;;;5.47;56.38;97982.88;4252576;27;5651;-66
2023/01/25 08:40:41;;;;;;;;;;;;;;;5.48;56.40;97976.66;4248917;27;5649;-66
2023/01/25 08:42:44;;;;;;;;;;;;;;;5.51;56.41;97966.72;4236920;27;6465;-65
2023/01/25 08:44:48;;;;;;;;;;;;;;;5.52;56.36;97968.38;4236988;27;5799;-65
2023/01/25 08:46:51;;;;;;;;;;;;;;;5.54;56.35;97976.13;4251844;27;5753;-66
2023/01/25 08:48:55;;;;;;;;;;;;;;;5.57;56.27;97981.13;4245949;27;5732;-65
2023/01/25 08:50:58;;;;;;;;;;;;;;;5.58;56.20;97981.94;4238507;27;6337;-66
2023/01/25 08:53:00;;;;;;;;;;;;;;;5.59;56.12;97978.34;4253036;27;5719;-65
2023/01/25 08:55:04;;;;;;;;;;;;;;;5.61;56.04;97976.44;4251888;27;5639;-65
2023/01/25 08:57:07;;;;;;;;;;;;;;;5.62;56.10;97973.66;4250225;27;5079;-65
2023/01/25 08:59:11;;;;;;;;;;;;;;;5.64;55.97;97969.13;4252885;27;7343;-65
2023/01/25 09:01:17;;;;;;;;;;;;;;;5.66;55.83;97975.06;4253074;27;5703;-65
2023/01/25 09:03:20;;;;;;;;;;;;;;;5.67;55.95;97968.88;4252870;27;5348;-65
2023/01/25 09:05:23;;;;;;;;;;;;;;;5.65;55.80;97960.28;4246268;27;6867;-65
2023/01/25 09:07:26;;;;;;;;;;;;;;;5.66;55.96;97961.09;4243244;27;5806;-65
2023/01/25 09:09:29;;;;;;;;;;;;;;;5.67;55.92;97954.91;4239192;27;5669;-65
2023/01/25 09:11:35;;;;;;;;;;;;;;;5.71;55.81;97951.06;4241506;27;5631;-69
2023/01/25 09:13:42;;;;;;;;;;;;;;;5.73;55.63;97955.19;4245692;27;5643;-69
2023/01/25 09:15:45;;;;;;;;;;;;;;;5.76;55.70;97962.78;4237735;27;5744;-73
2023/01/25 09:17:52;;;;;;;;;;;;;;;5.77;55.63;97956.56;4240532;27;5787;-68
2023/01/25 09:19:55;;;;;;;;;;;;;;;5.78;55.66;97962.69;4243748;27;5769;-80
2023/01/25 09:21:58;;;;;;;;;;;;;;;5.78;55.47;97963.50;4239917;27;5640;-70
2023/01/25 09:24:01;;;;;;;;;;;;;;;5.80;55.45;97958.94;4245299;27;5691;-70
2023/01/25 09:26:10;;;;;;;;;;;;;;;5.80;55.54;97961.56;4241447;27;5755;-66
2023/01/25 09:28:13;;;;;;;;;;;;;;;5.83;55.39;97955.22;4242763;27;5834;-65
2023/01/25 09:30:16;;;;;;;;;;;;;;;5.82;55.50;97954.41;4239055;27;5720;-68
2023/01/25 09:32:21;;;;;;;;;;;;;;;5.75;55.31;97948.00;4247433;27;5939;-66
2023/01/25 09:34:25;;;;;;;;;;;;;;;5.76;55.18;97949.66;4249061;27;5699;-67
2023/01/25 09:36:28;;;;;;;;;;;;;;;5.77;55.15;97951.31;4241432;27;5818;-64
2023/01/25 09:38:31;;;;;;;;;;;;;;;5.83;55.19;97953.44;4243278;27;5617;-63
2023/01/25 09:40:39;;;;;;;;;;;;;;;5.89;54.95;97953.84;4239258;27;5738;-64
2023/01/25 09:43:00;;;;;;;;;;;;;;;5.89;54.85;97949.44;4243714;27;5632;-67
2023/01/25 09:45:19;;;;;;;;;;;;;;;5.93;54.98;97944.78;4241973;27;5719;-70
2023/01/25 09:47:27;;;;;;;;;;;;;;;5.93;54.72;97945.59;4241372;27;5627;-71
2023/01/25 09:49:50;;;;;;;;;;;;;;;5.98;54.72;97942.56;4240607;27;5817;-70
2023/01/25 09:52:10;;;;;;;;;;;;;;;5.96;54.56;97939.25;4237173;27;5762;-67
2023/01/25 09:54:14;;;;;;;;;;;;;;;6.01;54.77;97943.13;4240022;27;5724;-69
2023/01/25 09:56:24;;;;;;;;;;;;;;;6.02;54.71;97941.34;4240910;27;5748;-67
2023/01/25 09:58:35;;;;;;;;;;;;;;;6.07;54.54;97941.75;4243656;27;5616;-72
2023/01/25 10:00:44;;;;;;;;;;;;;;;6.11;54.64;97937.88;4235617;27;5665;-70
2023/01/25 10:02:54;;;;;;;;;;;;;;;6.15;54.52;97938.44;4246029;27;5796;-63
2023/01/25 10:05:06;;;;;;;;;;;;;;;6.17;54.30;97936.50;4234716;27;5666;-63
2023/01/25 10:07:19;;;;;;;;;;;;;;;6.16;54.49;97935.69;4246396;27;5620;-64
2023/01/25 10:09:31;;;;;;;;;;;;;;;6.18;54.29;97933.75;4241686;27;5818;-63
2023/01/25 10:11:37;;;;;;;;;;;;;;;6.17;54.25;97926.84;4242584;27;5810;-63
2023/01/25 10:13:40;;;;;;;;;;;;;;;6.15;54.21;97930.56;4248913;27;6302;-63
2023/01/25 10:15:47;;;;;;;;;;;;;;;6.18;54.26;97928.50;4247861;27;5616;-63
2023/01/25 10:17:59;;;;;;;;;;;;;;;6.23;54.14;97928.06;4250323;27;5652;-64
2023/01/25 10:20:13;;;;;;;;;;;;;;;6.27;54.17;97927.66;4243272;27;5653;-63
2023/01/25 10:22:19;;;;;;;;;;;;;;;6.33;54.04;97915.75;4236035;27;5790;-63
2023/01/25 10:24:36;;;;;;;;;;;;;;;6.39;54.05;97923.09;4250404;27;5620;-63
2023/01/25 10:26:42;;;;;;;;;;;;;;;6.41;54.04;97924.63;4243905;27;5820;-64
2023/01/25 10:28:51;;;;;;;;;;;;;;;6.42;53.83;97926.28;4237141;27;5620;-62
2023/01/25 10:30:58;;;;;;;;;;;;;;;6.45;53.77;97914.66;4239606;27;5707;-64
2023/01/25 10:33:10;;;;;;;;;;;;;;;6.48;53.74;97918.81;4250918;27;5934;-64
2023/01/25 10:35:16;;;;;;;;;;;;;;;6.50;53.86;97917.69;4250866;27;5719;-64
2023/01/25 10:37:36;;;;;;;;;;;;;;;6.52;53.75;97910.50;4251548;27;5102;-64
2023/01/25 10:39:45;;;;;;;;;;;;;;;6.49;53.67;97905.53;4241665;27;7758;-62
2023/01/25 10:41:54;;;;;;;;;;;;;;;6.50;53.50;97906.38;4249397;27;5608;-62
2023/01/25 10:46:21;;;;;;;;;;;;;;;6.50;53.46;97903.75;4232829;28;5628;-63
2023/01/25 10:48:29;;;;;;;;;;;;;;;6.51;53.42;97902.78;4234329;27;5752;-62
2023/01/25 10:50:53;;;;;;;;;;;;;;;6.52;53.49;97896.53;4236016;27;6323;-62
2023/01/25 10:52:58;;;;;;;;;;;;;;;6.56;53.33;97892.66;4234180;28;6318;-62
2023/01/25 10:55:14;;;;;;;;;;;;;;;6.56;53.33;97874.25;4239402;27;5798;-62
2023/01/25 10:57:19;;;;;;;;;;;;;;;6.59;53.19;97874.00;4246704;27;5628;-62
2023/01/25 10:59:24;;;;;;;;;;;;;;;6.59;53.31;97879.25;4248868;27;5724;-63
2023/01/25 11:01:29;;;;;;;;;;;;;;;6.57;53.24;97873.28;4251192;27;5624;-62
2023/01/25 11:03:38;;;;;;;;;;;;;;;6.55;53.20;97869.97;4251269;27;6536;-62
2023/01/25 11:05:42;;;;;;;;;;;;;;;6.55;53.31;97862.09;4250039;27;5861;-63
2023/01/25 11:07:46;;;;;;;;;;;;;;;6.56;53.01;97864.56;4251329;27;5628;-63
2023/01/25 11:09:52;;;;;;;;;;;;;;;6.56;53.12;97866.38;4242217;27;5645;-63
2023/01/25 11:11:56;;;;;;;;;;;;;;;6.56;52.95;97863.75;4233616;28;5649;-62
2023/01/25 11:13:59;;;;;;;;;;;;;;;6.55;52.94;97856.84;4239055;27;5649;-62
2023/01/25 11:16:20;;;;;;;;;;;;;;;6.54;53.12;97855.19;4235002;27;5744;-62
2023/01/25 11:18:27;;;;;;;;;;;;;;;6.58;53.10;97853.94;4249407;27;5620;-61
2023/01/25 11:20:30;;;;;;;;;;;;;;;6.58;52.99;97848.69;4237508;27;5657;-61
2023/01/25 11:22:33;;;;;;;;;;;;;;;6.60;53.02;97865.16;4240157;27;5632;-62
2023/01/25 11:24:37;;;;;;;;;;;;;;;6.64;53.10;97856.00;4248578;27;5624;-62
2023/01/25 11:26:41;;;;;;;;;;;;;;;6.66;52.95;97854.88;4238432;27;6106;-62
2023/01/25 11:28:47;;;;;;;;;;;;;;;6.65;52.76;97849.78;4250689;27;5655;-62
2023/01/25 11:30:52;;;;;;;;;;;;;;;6.59;52.66;97837.22;4246462;27;5639;-62
2023/01/25 11:32:55;;;;;;;;;;;;;;;6.59;52.95;97843.28;4246675;27;5849;-62
2023/01/25 11:34:58;;;;;;;;;;;;;;;6.60;52.92;97838.88;4240150;27;5657;-62
2023/01/25 11:37:20;;;;;;;;;;;;;;;6.60;52.84;97833.63;4242737;27;5766;-61
2023/01/25 11:39:42;;;;;;;;;;;;;;;6.60;52.74;97831.00;4243098;27;5840;-62
2023/01/25 11:41:59;;;;;;;;;;;;;;;6.60;52.65;97831.00;4241647;27;5810;-62
2023/01/25 11:44:25;;;;;;;;;;;;;;;6.65;52.68;97828.75;4250859;27;5645;-62
2023/01/25 11:46:44;;;;;;;;;;;;;;;6.70;52.56;97826.53;4240697;27;5654;-62
2023/01/25 11:49:06;;;;;;;;;;;;;;;6.73;52.44;97826.25;4248516;27;5652;-63
2023/01/25 11:51:15;;;;;;;;;;;;;;;6.77;52.55;97824.13;4205404;27;5631;-63
2023/01/25 11:53:41;;;;;;;;;;;;;;;6.77;52.36;97813.63;4244966;27;6331;-63
2023/01/25 11:55:54;;;;;;;;;;;;;;;6.77;52.33;97805.75;4242435;27;5853;-63
2023/01/25 11:58:11;;;;;;;;;;;;;;;6.75;52.41;97799.81;4247734;27;5628;-64
2023/01/25 12:00:28;;;;;;;;;;;;;;;6.76;52.41;97804.09;4238463;27;5645;-63
2023/01/25 12:03:05;;;;;;;;;;;;;;;6.77;52.22;97803.13;4252238;27;5743;-68
2023/01/25 12:05:25;;;;;;;;;;;;;;;6.75;52.54;97795.38;4239348;27;5644;-70
2023/01/25 12:07:39;;;;;;;;;;;;;;;6.74;52.38;97795.53;4240533;27;5788;-67
2023/01/25 12:09:58;;;;;;;;;;;;;;;6.73;52.18;97786.81;4248443;27;5806;-66
2023/01/25 12:12:12;;;;;;;;;;;;;;;6.73;52.25;97781.56;4249259;27;7194;-76
2023/01/25 12:14:25;;;;;;;;;;;;;;;6.73;52.23;97781.56;4248126;27;5735;-65
2023/01/25 12:16:40;;;;;;;;;;;;;;;6.70;52.35;97772.19;4248700;27;5744;-67
2023/01/25 12:19:01;;;;;;;;;;;;;;;6.72;52.11;97769.41;4244275;27;5620;-66
2023/01/25 12:21:06;;;;;;;;;;;;;;;6.75;52.39;97770.91;4244966;27;5806;-66
2023/01/25 12:23:34;;;;;;;;;;;;;;;6.79;52.11;97759.13;4243755;27;5738;-68
2023/01/25 12:25:49;;;;;;;;;;;;;;;6.80;52.03;97761.63;4245779;27;5780;-69
2023/01/25 12:28:07;;;;;;;;;;;;;;;6.77;52.01;97755.81;4240107;27;5835;-69
2023/01/25 12:30:17;;;;;;;;;;;;;;;6.77;52.19;97761.06;4243842;27;5632;-68
2023/01/25 12:32:26;;;;;;;;;;;;;;;6.78;52.18;97757.47;4246725;27;6312;-68
2023/01/25 12:34:35;;;;;;;;;;;;;;;6.80;52.18;97750.28;4243425;27;5809;-72
2023/01/25 12:36:43;;;;;;;;;;;;;;;6.81;51.95;97738.78;4244135;27;5696;-70
2023/01/25 12:38:54;;;;;;;;;;;;;;;6.82;51.95;97729.94;4240967;27;5791;-69
2023/01/25 12:41:02;;;;;;;;;;;;;;;6.80;52.03;97730.09;4245400;27;5920;-69
2023/01/25 12:43:14;;;;;;;;;;;;;;;6.75;51.88;97731.47;4244279;27;5649;-72
2023/01/25 12:45:22;;;;;;;;;;;;;;;6.61;51.98;97731.00;4241615;27;5780;-72
2023/01/25 12:47:33;;;;;;;;;;;;;;;6.53;52.16;97727.44;4246222;27;5770;-71
2023/01/25 12:49:44;;;;;;;;;;;;;;;6.51;52.28;97730.22;4242784;27;5645;-74
2023/01/25 12:51:48;;;;;;;;;;;;;;;6.52;52.28;97736.28;4247858;27;6429;-73
2023/01/25 12:53:53;;;;;;;;;;;;;;;6.52;52.19;97725.78;4244810;27;5608;-69
2023/01/25 12:55:57;;;;;;;;;;;;;;;6.50;52.14;97720.69;4242476;27;5624;-71
2023/01/25 12:58:07;;;;;;;;;;;;;;;6.55;52.12;97718.44;4244604;27;5838;-65
2023/01/25 13:00:21;;;;;;;;;;;;;;;6.63;52.19;97717.72;4242960;27;5852;-65
2023/01/25 13:02:43;;;;;;;;;;;;;;;6.72;52.06;97716.84;4241277;27;5660;-63
2023/01/25 13:04:58;;;;;;;;;;;;;;;6.79;51.87;97715.25;4244187;27;5344;-71
2023/01/25 13:07:10;;;;;;;;;;;;;;;6.82;51.84;97712.38;4240387;27;7691;-73
2023/01/25 13:09:20;;;;;;;;;;;;;;;6.82;51.66;97720.25;4241721;27;5710;-64
2023/01/25 13:11:27;;;;;;;;;;;;;;;6.84;51.75;97714.84;4239417;27;5669;-66
2023/01/25 13:13:30;;;;;;;;;;;;;;;6.86;51.60;97711.09;4245231;27;5657;-64
2023/01/25 13:15:39;;;;;;;;;;;;;;;6.82;51.73;97707.09;4248442;27;5635;-68
2023/01/25 13:17:42;;;;;;;;;;;;;;;6.78;51.65;97705.72;4244011;27;6522;-68
2023/01/25 13:19:45;;;;;;;;;;;;;;;6.74;51.49;97701.75;4241786;27;5784;-64
2023/01/25 13:21:51;;;;;;;;;;;;;;;6.75;51.62;97700.78;4242669;27;5771;-66
2023/01/25 13:24:11;;;;;;;;;;;;;;;6.59;51.37;97695.34;4240878;27;5494;-64
2023/01/25 13:26:37;;;;;;;;;;;;;;;6.46;51.40;97702.75;4246238;27;5647;-64
2023/01/25 13:28:44;;;;;;;;;;;;;;;6.38;51.70;97695.56;4239246;27;5641;-68
2023/01/25 13:30:54;;;;;;;;;;;;;;;6.33;51.56;97690.72;4242250;27;5657;-69
2023/01/25 13:33:00;;;;;;;;;;;;;;;6.30;51.55;97684.94;4244273;27;5831;-65
2023/01/25 13:35:04;;;;;;;;;;;;;;;6.31;51.62;97691.84;4240438;27;5772;-65
2023/01/25 13:37:17;;;;;;;;;;;;;;;6.37;51.49;97681.63;4246796;27;5790;-66
2023/01/25 13:39:43;;;;;;;;;;;;;;;6.36;51.37;97681.75;4246933;27;5733;-66
2023/01/25 13:41:58;;;;;;;;;;;;;;;6.30;51.32;97680.53;4242811;27;6371;-65
2023/01/25 13:44:27;;;;;;;;;;;;;;;6.25;51.55;97680.16;4244617;27;5716;-66
2023/01/25 13:46:31;;;;;;;;;;;;;;;6.30;51.36;97683.16;4245364;27;5624;-73
2023/01/25 13:48:36;;;;;;;;;;;;;;;6.29;51.30;97678.88;4238560;27;5619;-75
2023/01/25 13:50:45;;;;;;;;;;;;;;;6.32;51.48;97680.38;4246871;27;5648;-65
2023/01/25 13:52:58;;;;;;;;;;;;;;;6.30;51.28;97679.69;4248408;27;5719;-71
2023/01/25 13:55:01;;;;;;;;;;;;;;;6.28;51.41;97682.47;4239244;27;5632;-67
2023/01/25 13:57:07;;;;;;;;;;;;;;;6.34;51.24;97676.66;4243331;27;5650;-72
2023/01/25 13:59:24;;;;;;;;;;;;;;;6.27;51.05;97672.94;4244513;27;5627;-77
2023/01/25 14:01:29;;;;;;;;;;;;;;;6.17;51.28;97674.78;4248847;27;5616;-75
2023/01/25 14:03:36;;;;;;;;;;;;;;;6.15;51.39;97676.72;4235680;27;5756;-76
2023/01/25 14:05:50;;;;;;;;;;;;;;;6.15;51.32;97675.91;4248196;27;5111;-73
2023/01/25 14:08:15;;;;;;;;;;;;;;;6.20;51.16;97668.41;4243210;27;5652;-71
2023/01/25 14:10:28;;;;;;;;;;;;;;;6.29;51.17;97668.38;4243545;27;6368;-66
2023/01/25 14:12:36;;;;;;;;;;;;;;;6.29;51.09;97668.38;4243108;27;5643;-69
2023/01/25 14:14:39;;;;;;;;;;;;;;;6.29;51.10;97663.13;4244348;27;5778;-70
2023/01/25 14:16:42;;;;;;;;;;;;;;;6.28;51.40;97661.47;4244977;27;5619;-76
2023/01/25 14:18:48;;;;;;;;;;;;;;;6.30;51.32;97670.03;4248328;27;5746;-69
2023/01/25 14:20:52;;;;;;;;;;;;;;;6.30;51.12;97662.16;4246081;27;5624;-75
2023/01/25 14:22:55;;;;;;;;;;;;;;;6.27;51.10;97665.06;4244361;27;5612;-72
2023/01/25 14:25:12;;;;;;;;;;;;;;;6.21;51.14;97676.13;4241573;27;5653;-69
2023/01/25 14:27:16;;;;;;;;;;;;;;;6.09;50.94;97669.41;4232673;27;5569;-69
2023/01/25 14:29:20;;;;;;;;;;;;;;;6.05;51.09;97673.31;4241167;27;5807;-71
2023/01/25 14:31:36;;;;;;;;;;;;;;;6.08;51.01;97675.63;4245354;27;6415;-68
2023/01/25 14:33:45;;;;;;;;;;;;;;;6.03;51.14;97677.88;4240405;27;7285;-69
2023/01/25 14:35:50;;;;;;;;;;;;;;;6.03;51.21;97672.63;4240388;27;5811;-67
2023/01/25 14:38:19;;;;;;;;;;;;;;;6.06;51.17;97670.53;4241189;27;5687;-68
2023/01/25 14:40:24;;;;;;;;;;;;;;;6.14;51.24;97664.56;4245625;27;5624;-67
2023/01/25 14:42:26;;;;;;;;;;;;;;;6.22;51.00;97661.22;4241391;27;5772;-74
2023/01/25 14:44:30;;;;;;;;;;;;;;;6.27;50.99;97664.25;4242510;27;6745;-74
2023/01/25 14:46:34;;;;;;;;;;;;;;;6.31;50.92;97661.16;4245585;27;6299;-72
2023/01/25 14:48:40;;;;;;;;;;;;;;;6.36;51.02;97656.31;4239540;27;5649;-69
2023/01/25 14:50:43;;;;;;;;;;;;;;;6.41;50.85;97664.56;4245334;27;5726;-69
2023/01/25 14:52:48;;;;;;;;;;;;;;;6.43;50.93;97661.81;4244498;27;5722;-63
2023/01/25 14:54:54;;;;;;;;;;;;;;;6.36;50.88;97666.81;4239710;27;5735;-67
2023/01/25 14:57:00;;;;;;;;;;;;;;;6.32;50.87;97664.63;4244946;27;5581;-69
2023/01/25 14:59:05;;;;;;;;;;;;;;;6.26;50.91;97663.41;4241879;27;5649;-78
2023/01/25 15:01:21;;;;;;;;;;;;;;;6.18;51.07;97665.94;4245033;27;5659;-63
2023/01/25 15:03:26;;;;;;;;;;;;;;;6.17;51.04;97669.53;4251574;27;6416;-66
2023/01/25 15:05:30;;;;;;;;;;;;;;;6.23;51.00;97674.22;4248103;27;5632;-68
2023/01/25 15:07:36;;;;;;;;;;;;;;;6.24;51.24;97669.78;4242427;27;5754;-77
2023/01/25 15:09:42;;;;;;;;;;;;;;;6.26;51.17;97663.41;4240886;27;5748;-76
2023/01/25 15:11:48;;;;;;;;;;;;;;;6.28;50.85;97650.13;4240706;27;5810;-71
2023/01/25 15:14:01;;;;;;;;;;;;;;;6.24;50.94;97649.59;4241192;27;5711;-75
2023/01/25 15:16:04;;;;;;;;;;;;;;;6.16;50.99;97649.50;4246907;27;5652;-76
2023/01/25 15:18:37;;;;;;;;;;;;;;;6.22;51.24;97648.06;4240726;27;5619;-74
2023/01/25 15:20:42;;;;;;;;;;;;;;;6.27;50.93;97644.06;4242610;27;5808;-72
2023/01/25 15:22:45;;;;;;;;;;;;;;;6.32;50.93;97649.69;4254947;27;5766;-74
2023/01/25 15:24:49;;;;;;;;;;;;;;;6.35;50.90;97643.34;4248511;27;5913;-77
2023/01/25 15:27:02;;;;;;;;;;;;;;;6.30;50.97;97643.75;4242609;27;5654;-75
2023/01/25 15:29:13;;;;;;;;;;;;;;;6.26;50.83;97647.66;4246344;27;5624;-69
2023/01/25 15:31:18;;;;;;;;;;;;;;;6.18;51.07;97649.34;4244174;27;5627;-70
2023/01/25 15:33:23;;;;;;;;;;;;;;;6.18;50.97;97639.66;4248616;27;5819;-70
2023/01/25 15:35:27;;;;;;;;;;;;;;;6.13;51.06;97639.28;4244181;27;5644;-72
2023/01/25 15:37:30;;;;;;;;;;;;;;;6.10;51.03;97636.94;4244597;27;5629;-74
2023/01/25 15:39:33;;;;;;;;;;;;;;;6.11;51.24;97646.47;4244004;27;5811;-73
2023/01/25 15:41:38;;;;;;;;;;;;;;;6.11;51.08;97638.59;4242329;27;5862;-76
2023/01/25 15:43:41;;;;;;;;;;;;;;;6.18;51.33;97637.03;4241653;27;7224;-76
2023/01/25 15:45:47;;;;;;;;;;;;;;;6.25;51.05;97629.44;4242801;27;5640;-78
2023/01/25 15:47:49;;;;;;;;;;;;;;;6.22;51.15;97635.78;4245295;27;5772;-77
2023/01/25 15:49:52;;;;;;;;;;;;;;;6.26;51.14;97628.47;4243069;27;5638;-67
2023/01/25 15:51:56;;;;;;;;;;;;;;;6.31;50.96;97634.09;4241588;27;5645;-74
2023/01/25 15:53:59;;;;;;;;;;;;;;;6.33;50.90;97629.50;4246727;27;5922;-71
2023/01/25 15:56:05;;;;;;;;;;;;;;;6.36;50.95;97626.59;4249188;27;5848;-71
2023/01/25 15:58:15;;;;;;;;;;;;;;;6.36;50.99;97627.44;4244650;27;5851;-75
2023/01/25 16:00:21;;;;;;;;;;;;;;;6.35;51.09;97625.78;4244571;27;5738;-70
2023/01/25 16:02:25;;;;;;;;;;;;;;;6.36;51.08;97622.19;4244789;27;5582;-76
2023/01/25 16:04:28;;;;;;;;;;;;;;;6.34;51.03;97618.03;4245996;27;5616;-75
2023/01/25 16:06:36;;;;;;;;;;;;;;;6.33;51.17;97617.19;4245348;27;5809;-73
2023/01/25 16:08:39;;;;;;;;;;;;;;;6.33;50.99;97611.94;4246070;27;5690;-73
2023/01/25 16:10:42;;;;;;;;;;;;;;;6.38;51.25;97614.97;4244722;27;5126;-74
2023/01/25 16:12:45;;;;;;;;;;;;;;;6.40;51.23;97612.19;4247737;27;5647;-66
2023/01/25 16:14:49;;;;;;;;;;;;;;;6.42;51.21;97600.56;4243135;27;5850;-67
2023/01/25 16:16:53;;;;;;;;;;;;;;;6.45;51.01;97602.06;4242186;27;5641;-67
2023/01/25 16:18:56;;;;;;;;;;;;;;;6.46;51.16;97601.13;4252666;27;5631;-68
2023/01/25 16:20:58;;;;;;;;;;;;;;;6.45;50.93;97609.13;4241864;27;5627;-67
2023/01/25 16:23:01;;;;;;;;;;;;;;;6.45;50.95;97604.69;4244438;27;5632;-68
2023/01/25 16:25:07;;;;;;;;;;;;;;;6.45;50.90;97603.88;4242026;27;5271;-68
2023/01/25 16:27:18;;;;;;;;;;;;;;;6.43;51.02;97596.97;4242198;27;7780;-72
2023/01/25 16:29:22;;;;;;;;;;;;;;;6.42;51.11;97594.50;4249913;27;5691;-69
2023/01/25 16:31:26;;;;;;;;;;;;;;;6.41;51.18;97593.66;4244342;27;5658;-69
2023/01/25 16:33:34;;;;;;;;;;;;;;;6.45;50.99;97601.25;4250042;27;5795;-69
2023/01/25 16:35:38;;;;;;;;;;;;;;;6.47;50.96;97597.53;4242299;27;5656;-69
2023/01/25 16:37:40;;;;;;;;;;;;;;;6.47;51.07;97601.94;4252166;27;5751;-69
2023/01/25 16:39:43;;;;;;;;;;;;;;;6.47;51.04;97596.69;4244952;27;5616;-68
2023/01/25 16:41:46;;;;;;;;;;;;;;;6.47;50.99;97586.19;4243435;27;5130;-69
2023/01/25 16:43:49;;;;;;;;;;;;;;;6.48;51.05;97593.09;4238882;27;7695;-69
2023/01/25 16:45:57;;;;;;;;;;;;;;;6.48;51.09;97598.34;4247484;27;5657;-70
2023/01/25 16:48:01;;;;;;;;;;;;;;;6.43;51.12;97591.72;4239632;27;5751;-68
2023/01/25 16:50:11;;;;;;;;;;;;;;;6.46;51.12;97597.66;4241244;27;5767;-68
2023/01/25 16:52:14;;;;;;;;;;;;;;;6.49;51.19;97592.13;4244603;27;5802;-72
2023/01/25 16:54:18;;;;;;;;;;;;;;;6.50;51.18;97596.38;4243640;27;5620;-70
2023/01/25 16:56:23;;;;;;;;;;;;;;;6.42;50.91;97587.44;4247423;27;5734;-69
2023/01/25 16:58:26;;;;;;;;;;;;;;;6.40;51.09;97591.19;4252352;27;5786;-69
2023/01/25 17:00:28;;;;;;;;;;;;;;;6.37;51.28;97594.94;4252415;27;5624;-69
2023/01/25 17:02:31;;;;;;;;;;;;;;;6.38;51.27;97582.63;4250367;27;5760;-70
2023/01/25 17:04:35;;;;;;;;;;;;;;;6.41;51.32;97590.22;4245157;27;5748;-70
2023/01/25 17:06:41;;;;;;;;;;;;;;;6.42;51.04;97590.06;4252799;27;5636;-70
2023/01/25 17:08:44;;;;;;;;;;;;;;;6.40;51.14;97581.50;4253291;27;5656;-70
2023/01/25 17:10:48;;;;;;;;;;;;;;;6.40;51.25;97578.88;4252736;27;5612;-70
2023/01/25 17:12:51;;;;;;;;;;;;;;;6.40;51.28;97581.50;4253233;27;5801;-70
2023/01/25 17:14:53;;;;;;;;;;;;;;;6.42;51.14;97574.31;4253098;27;5710;-71
2023/01/25 17:16:56;;;;;;;;;;;;;;;6.45;51.19;97567.91;4253269;27;5627;-69
2023/01/25 17:19:01;;;;;;;;;;;;;;;6.47;51.26;97580.94;4252900;27;5616;-69
2023/01/25 17:21:06;;;;;;;;;;;;;;;6.40;51.15;97573.63;4252948;27;5656;-69
2023/01/25 17:23:09;;;;;;;;;;;;;;;6.38;51.29;97575.59;4248089;27;5641;-70
2023/01/25 17:25:12;;;;;;;;;;;;;;;6.38;51.30;97567.69;4242008;27;5726;-71
2023/01/25 17:27:16;;;;;;;;;;;;;;;6.40;51.23;97571.00;4247738;27;5665;-70
2023/01/25 17:29:18;;;;;;;;;;;;;;;6.36;51.33;97574.09;4238138;27;5639;-70
2023/01/25 17:31:23;;;;;;;;;;;;;;;6.32;51.10;97567.44;4244007;27;5679;-70
2023/01/25 17:33:26;;;;;;;;;;;;;;;6.33;51.03;97564.69;4253036;27;5636;-70
2023/01/25 17:35:29;;;;;;;;;;;;;;;6.35;51.22;97561.94;4244004;27;5726;-70
2023/01/25 17:37:33;;;;;;;;;;;;;;;6.40;51.29;97560.50;4243676;27;5584;-71
2023/01/25 17:39:36;;;;;;;;;;;;;;;6.42;51.09;97561.16;4242906;27;7687;-71
2023/01/25 17:41:38;;;;;;;;;;;;;;;6.44;51.09;97553.13;4243343;27;5632;-71
2023/01/25 17:43:41;;;;;;;;;;;;;;;6.43;51.00;97565.44;4243701;27;5697;-71
2023/01/25 17:45:44;;;;;;;;;;;;;;;6.41;51.08;97554.25;4235183;28;5653;-71
2023/01/25 17:47:47;;;;;;;;;;;;;;;6.34;50.98;97555.84;4243530;27;5686;-71
2023/01/25 17:49:50;;;;;;;;;;;;;;;6.34;51.08;97557.63;4244085;27;5649;-71
2023/01/25 17:51:53;;;;;;;;;;;;;;;6.37;50.96;97550.28;4240549;27;5588;-71
2023/01/25 17:53:57;;;;;;;;;;;;;;;6.27;51.04;97549.53;4243325;27;6313;-70
2023/01/25 17:56:01;;;;;;;;;;;;;;;6.19;51.21;97552.06;4237293;27;5645;-71
2023/01/25 17:58:05;;;;;;;;;;;;;;;6.18;51.20;97547.78;4248199;27;5670;-72
2023/01/25 18:00:11;;;;;;;;;;;;;;;6.02;51.03;97547.59;4250985;27;5719;-71
2023/01/25 18:02:14;;;;;;;;;;;;;;;5.81;51.16;97558.31;4245460;27;6344;-71
2023/01/25 18:04:18;;;;;;;;;;;;;;;5.80;51.33;97552.22;4242892;27;5751;-70
2023/01/25 18:06:23;;;;;;;;;;;;;;;5.84;50.95;97553.59;4240723;27;5853;-70
2023/01/25 18:08:26;;;;;;;;;;;;;;;5.90;51.07;97548.75;4248403;27;5786;-70
2023/01/25 18:10:30;;;;;;;;;;;;;;;5.91;51.00;97545.19;4247640;27;6561;-70
2023/01/25 18:12:33;;;;;;;;;;;;;;;5.84;50.93;97550.97;4245428;27;5742;-71
2023/01/25 18:14:36;;;;;;;;;;;;;;;5.79;50.85;97545.34;4241201;27;6324;-71
2023/01/25 18:16:40;;;;;;;;;;;;;;;5.74;50.76;97550.16;4246081;27;5767;-70
2023/01/25 18:18:44;;;;;;;;;;;;;;;5.79;50.95;97550.59;4249808;27;5651;-70
2023/01/25 18:20:47;;;;;;;;;;;;;;;5.83;50.93;97540.59;4241959;27;5661;-70
2023/01/25 18:22:50;;;;;;;;;;;;;;;5.76;50.47;97540.34;4240409;27;5768;-70
2023/01/25 18:24:52;;;;;;;;;;;;;;;5.70;50.86;97535.69;4234792;27;5638;-71
2023/01/25 18:27:00;;;;;;;;;;;;;;;5.69;50.66;97536.66;4248100;27;5608;-70